Time;durP1;ratioP1;P1;durP2;ratioP2;P2;SDS_P1;SDS_P2;PMS_P1;PMS_P2;Temp;Humidity;BMP_temperature;BMP_pressure;BME280_temperature;BME280_humidity;BME280_pressure;Samples;Min_cycle;Max_cycle;Signal;HPM_P1;HPM_P2
2022/03/04 00:00:24;;;;;;;56.20;26.70;;;;;;;1.14;71.97;100354.39;130196;1268;107661;-77
2022/03/04 00:03:45;;;;;;;59.10;27.60;;;;;;;1.22;72.73;100357.27;130254;1268;108694;-77
2022/03/04 00:06:51;;;;;;;61.50;32.40;;;;;;;1.16;72.44;100363.21;130260;1266;108685;-76
2022/03/04 00:09:56;;;;;;;65.20;35.70;;;;;;;1.14;72.38;100363.17;130265;1268;108541;-77
2022/03/04 00:13:03;;;;;;;57.50;26.00;;;;;;;1.13;72.04;100361.81;130279;1268;106687;-76
2022/03/04 00:16:08;;;;;;;84.00;36.00;;;;;;;1.15;72.16;100360.14;130277;1268;108746;-77
2022/03/04 00:19:14;;;;;;;96.60;37.50;;;;;;;1.15;71.96;100352.59;130251;1268;108950;-76
2022/03/04 00:22:19;;;;;;;246.60;75.70;;;;;;;1.14;71.91;100352.46;130221;1268;108778;-76
2022/03/04 00:25:25;;;;;;;72.20;31.80;;;;;;;1.19;71.98;100354.27;130231;1268;109141;-76
2022/03/04 00:28:30;;;;;;;81.10;33.40;;;;;;;1.25;72.17;100353.08;130216;1268;107505;-76
2022/03/04 00:31:37;;;;;;;78.00;31.10;;;;;;;1.32;71.94;100352.29;130249;1268;108699;-76
2022/03/04 00:34:43;;;;;;;150.10;52.10;;;;;;;1.45;71.79;100350.83;130229;1268;109214;-76
2022/03/04 00:37:48;;;;;;;107.10;40.20;;;;;;;1.58;71.72;100347.95;130223;1268;108681;-76
2022/03/04 00:40:54;;;;;;;70.80;30.30;;;;;;;1.66;71.70;100345.23;130238;1268;108895;-77
2022/03/04 00:43:59;;;;;;;99.30;39.10;;;;;;;1.66;71.59;100342.73;130224;1268;108976;-77
2022/03/04 00:47:05;;;;;;;60.20;28.70;;;;;;;1.69;71.57;100341.28;130208;1268;109723;-78
2022/03/04 00:50:12;;;;;;;57.60;31.80;;;;;;;1.66;72.09;100348.33;130247;1268;108671;-80
2022/03/04 00:53:17;;;;;;;60.40;33.30;;;;;;;1.55;72.11;100350.41;130140;1267;108938;-76
2022/03/04 00:56:23;;;;;;;47.00;26.00;;;;;;;1.43;72.74;100353.95;130129;1268;108743;-76
2022/03/04 00:59:28;;;;;;;47.70;26.20;;;;;;;1.28;73.02;100353.05;130239;1268;108744;-77
2022/03/04 01:02:34;;;;;;;49.60;26.10;;;;;;;1.19;72.91;100354.63;130280;1268;106739;-79
2022/03/04 01:05:41;;;;;;;48.70;25.50;;;;;;;1.15;73.38;100352.58;130186;1268;107669;-77
2022/03/04 01:08:46;;;;;;;46.80;23.70;;;;;;;1.16;72.93;100354.10;130257;1268;108953;-77
2022/03/04 01:11:51;;;;;;;39.00;21.60;;;;;;;1.23;72.84;100350.77;130257;1267;109271;-76
2022/03/04 01:14:57;;;;;;;42.80;23.30;;;;;;;1.29;72.96;100355.63;130269;1268;108709;-78
2022/03/04 01:18:02;;;;;;;45.90;24.00;;;;;;;1.35;72.74;100358.27;130190;1268;108858;-78
2022/03/04 01:21:08;;;;;;;40.50;23.00;;;;;;;1.41;72.65;100352.48;130206;1268;108452;-78
2022/03/04 01:24:13;;;;;;;49.30;25.90;;;;;;;1.45;72.84;100355.00;130212;1268;108954;-78
2022/03/04 01:27:19;;;;;;;46.20;24.30;;;;;;;1.46;72.83;100350.77;130290;1268;108716;-77
2022/03/04 01:30:25;;;;;;;47.10;25.00;;;;;;;1.48;72.58;100345.70;130275;1268;108728;-78
2022/03/04 01:33:30;;;;;;;54.40;31.40;;;;;;;1.55;72.48;100349.13;130256;1268;107168;-79
2022/03/04 01:36:35;;;;;;;47.10;24.50;;;;;;;1.59;72.49;100347.04;130269;1268;108848;-78
2022/03/04 01:39:41;;;;;;;49.40;25.10;;;;;;;1.59;72.47;100348.79;130225;1268;108874;-78
2022/03/04 01:42:46;;;;;;;35.40;19.30;;;;;;;1.59;72.61;100341.91;130162;1268;108899;-77
2022/03/04 01:45:52;;;;;;;43.60;23.30;;;;;;;1.63;72.65;100347.82;130231;1268;108882;-78
2022/03/04 01:48:57;;;;;;;48.10;24.30;;;;;;;1.62;72.73;100340.18;130257;1268;108946;-77
2022/03/04 01:52:04;;;;;;;42.80;23.00;;;;;;;1.60;72.93;100333.64;130252;1268;108934;-77
2022/03/04 01:55:10;;;;;;;42.10;24.20;;;;;;;1.51;73.06;100335.03;130248;1268;108828;-78
2022/03/04 01:58:16;;;;;;;45.50;24.10;;;;;;;1.47;73.25;100341.57;130160;1268;108970;-77
2022/03/04 02:01:21;;;;;;;51.30;25.50;;;;;;;1.43;73.32;100336.22;130239;1268;108647;-76
2022/03/04 02:04:28;;;;;;;49.40;25.80;;;;;;;1.38;73.70;100337.77;130182;1268;108529;-78
2022/03/04 02:07:33;;;;;;;50.70;26.00;;;;;;;1.31;74.01;100336.44;130094;1268;183557;-78
2022/03/04 02:10:38;;;;;;;52.90;24.80;;;;;;;1.28;73.78;100337.30;130189;1268;108668;-78
2022/03/04 02:13:44;;;;;;;39.50;20.60;;;;;;;1.32;74.07;100336.68;130235;1268;108952;-79
2022/03/04 02:16:51;;;;;;;45.80;24.40;;;;;;;1.40;73.98;100337.64;130232;1268;108701;-79
2022/03/04 02:19:57;;;;;;;47.00;24.10;;;;;;;1.44;73.97;100339.50;130222;1268;108868;-78
2022/03/04 02:23:03;;;;;;;63.90;28.20;;;;;;;1.46;74.02;100340.95;130242;1268;108816;-77
2022/03/04 02:26:08;;;;;;;54.60;25.80;;;;;;;1.44;74.32;100338.45;130194;1268;108684;-79
2022/03/04 02:29:14;;;;;;;41.10;23.10;;;;;;;1.41;74.51;100338.98;130250;1267;108809;-80
2022/03/04 02:32:21;;;;;;;47.70;24.80;;;;;;;1.37;74.37;100339.92;130287;1268;108966;-78
2022/03/04 02:35:27;;;;;;;50.90;24.80;;;;;;;1.36;74.21;100340.46;130223;1268;107804;-79
2022/03/04 02:38:33;;;;;;;49.50;24.30;;;;;;;1.34;74.70;100338.85;130238;1268;108723;-79
2022/03/04 02:41:39;;;;;;;43.20;23.10;;;;;;;1.33;74.82;100344.69;130166;1268;108648;-79
2022/03/04 02:44:45;;;;;;;40.50;20.30;;;;;;;1.38;74.73;100344.95;130197;1268;108583;-77
2022/03/04 02:47:50;;;;;;;44.90;23.40;;;;;;;1.46;75.17;100346.92;130183;1268;108645;-77
2022/03/04 02:50:56;;;;;;;55.70;27.70;;;;;;;1.48;75.15;100345.72;130282;1268;108633;-79
2022/03/04 02:54:01;;;;;;;52.50;25.50;;;;;;;1.49;74.62;100347.08;130268;1268;108760;-77
2022/03/04 02:57:07;;;;;;;49.00;24.10;;;;;;;1.53;74.61;100346.85;130192;1268;107500;-79
2022/03/04 03:00:15;;;;;;;43.20;22.70;;;;;;;1.54;74.61;100348.70;130234;1268;109258;-80
2022/03/04 03:03:20;;;;;;;44.80;23.70;;;;;;;1.51;74.93;100345.55;130279;1268;108855;-71
2022/03/04 03:06:26;;;;;;;47.00;23.90;;;;;;;1.47;74.70;100346.13;130186;1268;108655;-73
2022/03/04 03:09:31;;;;;;;83.60;35.90;;;;;;;1.42;75.17;100340.80;130216;1268;106670;-74
2022/03/04 03:12:36;;;;;;;44.20;23.10;;;;;;;1.42;75.09;100345.04;130210;1269;108890;-74
2022/03/04 03:15:42;;;;;;;45.00;22.50;;;;;;;1.43;75.27;100344.47;130230;1268;108867;-77
2022/03/04 03:18:47;;;;;;;45.50;22.50;;;;;;;1.44;75.90;100345.79;130008;1269;108787;-78
2022/03/04 03:21:53;;;;;;;42.30;23.20;;;;;;;1.45;76.07;100348.20;130217;1268;108738;-77
2022/03/04 03:24:58;;;;;;;43.90;24.50;;;;;;;1.44;76.15;100346.30;130236;1268;108892;-78
2022/03/04 03:28:04;;;;;;;44.30;23.50;;;;;;;1.40;76.90;100348.33;130238;1268;108821;-78
2022/03/04 03:31:09;;;;;;;42.80;23.60;;;;;;;1.34;76.70;100351.98;130273;1268;108716;-78
2022/03/04 03:34:15;;;;;;;47.40;24.70;;;;;;;1.29;77.41;100353.55;130187;1268;109000;-79
2022/03/04 03:37:20;;;;;;;44.90;23.70;;;;;;;1.24;77.37;100354.16;130187;1268;108901;-76
2022/03/04 03:40:26;;;;;;;44.60;22.40;;;;;;;1.23;77.49;100353.23;130212;1268;108696;-75
2022/03/04 03:43:32;;;;;;;41.30;22.30;;;;;;;1.25;77.71;100356.21;130229;1268;107336;-76
2022/03/04 03:46:37;;;;;;;45.60;23.10;;;;;;;1.28;77.82;100356.41;130271;1268;108905;-78
2022/03/04 03:49:43;;;;;;;40.50;22.30;;;;;;;1.31;77.18;100354.44;130298;1268;108839;-76
2022/03/04 03:52:49;;;;;;;44.70;24.90;;;;;;;1.35;77.33;100358.29;130230;1268;109677;-77
2022/03/04 03:55:54;;;;;;;43.30;23.40;;;;;;;1.36;76.97;100362.91;130280;1268;108741;-77
2022/03/04 03:58:59;;;;;;;42.80;24.70;;;;;;;1.35;77.24;100365.27;130220;1268;108636;-78
2022/03/04 04:02:06;;;;;;;43.80;22.50;;;;;;;1.32;77.11;100366.15;130168;1268;109134;-76
2022/03/04 04:05:12;;;;;;;44.30;23.30;;;;;;;1.33;77.10;100368.01;130171;1268;108929;-75
2022/03/04 04:08:18;;;;;;;43.90;22.00;;;;;;;1.35;77.99;100367.02;130264;1268;108797;-74
2022/03/04 04:11:23;;;;;;;34.40;18.10;;;;;;;1.37;77.28;100369.02;130229;1268;108877;-75
2022/03/04 04:14:29;;;;;;;40.30;21.50;;;;;;;1.45;77.50;100370.10;130254;1268;108949;-74
2022/03/04 04:17:35;;;;;;;39.30;20.60;;;;;;;1.50;77.76;100372.97;130267;1268;108762;-75
2022/03/04 04:20:40;;;;;;;37.90;21.30;;;;;;;1.52;77.27;100369.31;130229;1268;108723;-75
2022/03/04 04:23:45;;;;;;;45.30;24.30;;;;;;;1.54;77.26;100374.13;130190;1268;108897;-75
2022/03/04 04:26:51;;;;;;;71.70;32.00;;;;;;;1.54;77.28;100372.71;130170;1268;108064;-75
2022/03/04 04:29:57;;;;;;;45.60;23.00;;;;;;;1.49;77.50;100373.19;130214;1268;108874;-75
2022/03/04 04:33:03;;;;;;;47.30;23.50;;;;;;;1.44;77.54;100374.87;130205;1268;108965;-74
2022/03/04 04:36:09;;;;;;;54.10;24.90;;;;;;;1.43;77.30;100371.96;130198;1268;107680;-74
2022/03/04 04:39:14;;;;;;;33.30;17.50;;;;;;;1.50;77.44;100381.23;130157;1268;108868;-76
2022/03/04 04:42:19;;;;;;;41.50;20.70;;;;;;;1.55;77.81;100381.77;130264;1268;108745;-76
2022/03/04 04:45:25;;;;;;;42.10;21.60;;;;;;;1.59;77.30;100378.40;130248;1268;108803;-75
2022/03/04 04:48:30;;;;;;;36.80;19.40;;;;;;;1.64;77.31;100382.31;130171;1268;108867;-75
2022/03/04 04:51:36;;;;;;;64.60;27.60;;;;;;;1.64;77.58;100378.09;130208;1268;108724;-76
2022/03/04 04:54:41;;;;;;;38.90;20.10;;;;;;;1.64;77.54;100383.18;130150;1269;106939;-75
2022/03/04 04:57:47;;;;;;;30.00;17.20;;;;;;;1.62;77.36;100381.91;130318;1270;108916;-75
2022/03/04 05:00:54;;;;;;;75.10;31.00;;;;;;;1.60;77.43;100383.25;130208;1268;109930;-75
2022/03/04 05:03:59;;;;;;;29.70;15.40;;;;;;;1.60;77.96;100381.17;130230;1268;109033;-75
2022/03/04 05:07:05;;;;;;;28.50;16.20;;;;;;;1.61;77.82;100384.74;130177;1270;108943;-76
2022/03/04 05:10:12;;;;;;;27.90;16.30;;;;;;;1.64;77.88;100381.09;130231;1270;108732;-74
2022/03/04 05:13:17;;;;;;;31.40;16.60;;;;;;;1.62;78.51;100384.70;130139;1270;109054;-75
2022/03/04 05:16:23;;;;;;;29.70;15.80;;;;;;;1.59;78.13;100382.60;130221;1270;108189;-75
2022/03/04 05:19:28;;;;;;;37.80;18.70;;;;;;;1.57;78.53;100387.13;130244;1270;108689;-75
2022/03/04 05:22:34;;;;;;;26.30;14.30;;;;;;;1.53;78.17;100391.20;130223;1269;108738;-75
2022/03/04 05:25:40;;;;;;;31.40;16.90;;;;;;;1.52;78.47;100391.80;130142;1270;108798;-75
2022/03/04 05:28:45;;;;;;;24.90;13.80;;;;;;;1.56;78.27;100395.03;130212;1270;107771;-74
2022/03/04 05:31:51;;;;;;;30.50;16.20;;;;;;;1.63;78.38;100395.54;130177;1270;109038;-74
2022/03/04 05:34:56;;;;;;;33.80;18.20;;;;;;;1.68;78.27;100396.62;130141;1270;108742;-75
2022/03/04 05:38:02;;;;;;;24.90;14.60;;;;;;;1.71;78.17;100404.13;130038;1270;108857;-75
2022/03/04 05:41:07;;;;;;;21.10;13.30;;;;;;;1.70;78.93;100402.10;130147;1270;108788;-75
2022/03/04 05:44:14;;;;;;;24.30;14.60;;;;;;;1.68;78.61;100402.43;130169;1267;108747;-74
2022/03/04 05:47:19;;;;;;;30.50;15.20;;;;;;;1.64;78.67;100411.79;130190;1270;108945;-76
2022/03/04 05:50:25;;;;;;;30.00;16.70;;;;;;;1.61;78.99;100412.50;130155;1270;107392;-74
2022/03/04 05:53:31;;;;;;;23.70;13.00;;;;;;;1.61;78.67;100415.81;130142;1270;108699;-74
2022/03/04 05:56:36;;;;;;;25.60;14.30;;;;;;;1.66;78.46;100417.08;130326;1268;108867;-74
2022/03/04 05:59:41;;;;;;;29.10;13.80;;;;;;;1.74;78.99;100417.82;130264;1268;108697;-74
2022/03/04 06:02:47;;;;;;;24.50;12.90;;;;;;;1.76;78.50;100417.00;130264;1268;108735;-73
2022/03/04 06:05:52;;;;;;;22.80;14.00;;;;;;;1.81;78.12;100425.98;130229;1268;108940;-73
2022/03/04 06:08:58;;;;;;;25.30;12.70;;;;;;;1.84;78.29;100426.66;130227;1268;107820;-74
2022/03/04 06:12:03;;;;;;;23.40;12.80;;;;;;;1.83;78.31;100426.41;130283;1268;108965;-72
2022/03/04 06:15:10;;;;;;;19.80;11.90;;;;;;;1.85;78.60;100432.62;130229;1270;108826;-73
2022/03/04 06:18:16;;;;;;;21.50;12.50;;;;;;;1.89;78.53;100438.34;130219;1268;107344;-73
2022/03/04 06:21:21;;;;;;;22.90;13.50;;;;;;;1.92;78.54;100438.30;130180;1268;108815;-73
2022/03/04 06:24:27;;;;;;;23.20;12.90;;;;;;;1.97;78.71;100444.31;130213;1268;107661;-74
2022/03/04 06:27:32;;;;;;;22.10;13.30;;;;;;;1.97;78.58;100447.45;130276;1269;108923;-71
2022/03/04 06:30:38;;;;;;;21.10;12.80;;;;;;;1.93;78.83;100448.23;130247;1270;108814;-73
2022/03/04 06:33:44;;;;;;;25.60;13.90;;;;;;;1.86;78.52;100454.11;130203;1270;108864;-73
2022/03/04 06:36:49;;;;;;;22.70;11.80;;;;;;;1.85;78.71;100460.29;130182;1270;108798;-72
2022/03/04 06:39:55;;;;;;;19.60;11.90;;;;;;;1.88;78.90;100460.83;130263;1270;107754;-73
2022/03/04 06:43:00;;;;;;;20.10;10.70;;;;;;;1.92;78.86;100464.80;130269;1270;108825;-73
2022/03/04 06:46:06;;;;;;;16.60;10.60;;;;;;;1.94;78.66;100472.73;130097;1270;107530;-74
2022/03/04 06:49:12;;;;;;;20.90;11.20;;;;;;;2.00;78.56;100477.85;130145;1270;108716;-73
2022/03/04 06:52:18;;;;;;;22.50;13.00;;;;;;;2.08;78.62;100479.83;130238;1270;108792;-71
2022/03/04 06:55:24;;;;;;;19.70;12.00;;;;;;;2.09;78.55;100483.39;130218;1269;109199;-71
2022/03/04 06:58:29;;;;;;;19.90;12.20;;;;;;;2.08;78.60;100485.45;130261;1269;108839;-73
2022/03/04 07:01:35;;;;;;;20.90;11.60;;;;;;;2.06;78.44;100488.02;130228;1268;106796;-72
2022/03/04 07:04:40;;;;;;;19.90;11.00;;;;;;;2.15;78.31;100485.38;130198;1268;109017;-73
2022/03/04 07:07:46;;;;;;;17.80;9.30;;;;;;;2.25;78.47;100481.73;130206;1270;108669;-72
2022/03/04 07:10:51;;;;;;;19.50;10.90;;;;;;;2.35;78.51;100484.63;130108;1270;108792;-75
2022/03/04 07:13:57;;;;;;;17.90;10.40;;;;;;;2.50;78.40;100488.48;130132;1270;108810;-73
2022/03/04 07:17:02;;;;;;;17.90;10.20;;;;;;;2.63;78.19;100483.30;130213;1270;109597;-73
2022/03/04 07:20:11;;;;;;;20.40;11.90;;;;;;;2.77;78.01;100478.67;130214;1270;107475;-73
2022/03/04 07:23:17;;;;;;;18.60;10.50;;;;;;;2.86;78.00;100483.05;130286;1270;108965;-71
2022/03/04 07:26:23;;;;;;;16.40;9.70;;;;;;;2.85;77.91;100485.01;130227;1270;107531;-74
2022/03/04 07:29:28;;;;;;;17.90;9.40;;;;;;;2.97;77.91;100485.48;130095;1270;108957;-73
2022/03/04 07:32:35;;;;;;;18.50;9.10;;;;;;;3.08;77.62;100489.55;130130;1270;106691;-73
2022/03/04 07:35:44;;;;;;;15.90;8.90;;;;;;;3.16;77.39;100485.85;130179;1270;108864;-73
2022/03/04 07:38:50;;;;;;;18.60;9.20;;;;;;;3.28;77.36;100494.36;130176;1270;107616;-72
2022/03/04 07:41:55;;;;;;;13.80;8.60;;;;;;;3.46;77.21;100493.73;130202;1270;108866;-72
2022/03/04 07:45:10;;;;;;;13.50;8.50;;;;;;;3.62;76.91;100499.16;130218;1270;108794;-73
2022/03/04 07:48:16;;;;;;;17.00;8.30;;;;;;;3.59;76.66;100503.65;130192;1270;108865;-73
2022/03/04 07:51:21;;;;;;;12.50;8.20;;;;;;;3.54;76.62;100506.21;130186;1270;107721;-74
2022/03/04 07:54:26;;;;;;;13.10;8.00;;;;;;;3.53;76.82;100507.81;130164;1269;109702;-73
2022/03/04 07:57:32;;;;;;;12.50;7.40;;;;;;;3.56;76.83;100508.94;130145;1270;108665;-73
2022/03/04 08:00:38;;;;;;;17.40;8.60;;;;;;;3.56;76.57;100510.85;130154;1270;108807;-74
2022/03/04 08:03:43;;;;;;;15.90;8.20;;;;;;;3.66;76.63;100512.81;130109;1270;108405;-74
2022/03/04 08:06:49;;;;;;;12.00;7.20;;;;;;;3.84;76.12;100516.40;130134;1270;108550;-74
2022/03/04 08:09:54;;;;;;;12.00;7.30;;;;;;;3.90;76.09;100508.55;130119;1269;108814;-73
2022/03/04 08:12:59;;;;;;;11.90;8.10;;;;;;;3.90;75.63;100504.52;130130;1270;108777;-74
2022/03/04 08:16:05;;;;;;;15.10;8.70;;;;;;;3.89;75.62;100511.80;130101;1270;109085;-73
2022/03/04 08:19:10;;;;;;;12.70;8.60;;;;;;;3.79;75.62;100514.93;130174;1270;108898;-73
2022/03/04 08:22:16;;;;;;;13.40;9.10;;;;;;;3.67;75.91;100516.80;130227;1270;108681;-73
2022/03/04 08:25:21;;;;;;;15.10;9.90;;;;;;;3.56;75.82;100521.38;130203;1270;109361;-73
2022/03/04 08:28:27;;;;;;;24.10;14.70;;;;;;;3.44;76.04;100523.05;130189;1271;108682;-72
2022/03/04 08:31:33;;;;;;;16.50;8.80;;;;;;;3.47;76.28;100530.41;130244;1271;108835;-72
2022/03/04 08:34:38;;;;;;;17.00;11.50;;;;;;;3.48;76.15;100532.13;130135;1270;108740;-72
2022/03/04 08:37:44;;;;;;;17.40;11.90;;;;;;;3.45;76.16;100533.00;130120;1270;109142;-73
2022/03/04 08:40:49;;;;;;;25.20;14.60;;;;;;;3.47;76.09;100533.04;130157;1270;108600;-72
2022/03/04 08:43:54;;;;;;;20.80;14.00;;;;;;;3.53;76.20;100529.14;130108;1270;108828;-73
2022/03/04 08:47:00;;;;;;;24.20;17.30;;;;;;;3.61;76.01;100536.76;130135;1270;106620;-72
2022/03/04 08:50:07;;;;;;;25.40;15.40;;;;;;;3.68;76.00;100536.82;130280;1270;108702;-72
2022/03/04 08:53:12;;;;;;;22.10;12.10;;;;;;;3.83;75.89;100539.50;130180;1269;107721;-74
2022/03/04 08:56:18;;;;;;;16.10;10.00;;;;;;;3.98;76.01;100539.89;130173;1270;108690;-73
2022/03/04 08:59:23;;;;;;;17.30;10.50;;;;;;;4.15;75.61;100542.29;130155;1270;108836;-74
2022/03/04 09:02:29;;;;;;;15.30;9.80;;;;;;;4.10;75.27;100550.37;130131;1271;108873;-73
2022/03/04 09:05:35;;;;;;;14.20;9.20;;;;;;;4.14;75.59;100549.56;130110;1270;108589;-72
2022/03/04 09:08:40;;;;;;;15.70;10.10;;;;;;;4.24;75.56;100549.58;130153;1270;108868;-73
2022/03/04 09:11:46;;;;;;;12.00;8.10;;;;;;;4.29;75.23;100553.10;130123;1271;108745;-74
2022/03/04 09:14:52;;;;;;;12.40;8.20;;;;;;;4.24;74.63;100557.33;130194;1271;108879;-72
2022/03/04 09:17:57;;;;;;;10.90;7.50;;;;;;;4.09;74.85;100561.13;130249;1271;108648;-74
2022/03/04 09:21:02;;;;;;;11.10;7.70;;;;;;;4.08;75.22;100561.39;130157;1270;109582;-73
2022/03/04 09:24:08;;;;;;;11.10;7.80;;;;;;;4.13;75.28;100559.48;130120;1270;108922;-73
2022/03/04 09:27:14;;;;;;;12.40;7.50;;;;;;;4.17;75.01;100559.22;130172;1270;108800;-74
2022/03/04 09:30:19;;;;;;;15.70;10.50;;;;;;;4.25;75.07;100554.39;130162;1271;108681;-77
2022/03/04 09:33:25;;;;;;;11.30;8.10;;;;;;;4.51;75.26;100553.53;130124;1270;107510;-73
2022/03/04 09:36:31;;;;;;;10.90;7.00;;;;;;;4.84;74.84;100559.66;130088;1271;108721;-73
2022/03/04 09:39:37;;;;;;;23.80;16.10;;;;;;;4.97;73.16;100559.97;130055;1269;108579;-72
2022/03/04 09:42:42;;;;;;;13.10;8.40;;;;;;;4.92;73.83;100561.24;130110;1271;108845;-74
2022/03/04 09:45:49;;;;;;;12.50;8.20;;;;;;;4.81;73.33;100565.86;130088;1271;108567;-74
2022/03/04 09:48:55;;;;;;;10.40;8.00;;;;;;;4.70;73.73;100565.91;130117;1270;108660;-74
2022/03/04 09:52:01;;;;;;;13.60;8.10;;;;;;;4.74;74.28;100563.23;130121;1271;108824;-73
2022/03/04 09:55:07;;;;;;;10.00;7.50;;;;;;;4.80;73.82;100563.66;130129;1271;108812;-74
2022/03/04 09:58:14;;;;;;;11.60;7.40;;;;;;;4.76;73.28;100566.59;129984;1270;108349;-73
2022/03/04 10:01:19;;;;;;;10.30;6.30;;;;;;;4.67;73.51;100563.52;130013;1271;109097;-73
2022/03/04 10:04:29;;;;;;;9.80;7.40;;;;;;;4.65;73.61;100559.56;130189;1271;108660;-72
2022/03/04 10:07:42;;;;;;;12.20;7.90;;;;;;;4.66;73.03;100562.00;130236;1270;108628;-72
2022/03/04 10:10:51;;;;;;;13.50;8.70;;;;;;;4.68;73.78;100559.33;130138;1270;108885;-73
2022/03/04 10:13:59;;;;;;;15.00;10.20;;;;;;;4.80;74.00;100563.46;129989;1271;108902;-71
2022/03/04 10:17:05;;;;;;;11.60;7.70;;;;;;;4.87;72.91;100566.02;129973;1270;108780;-73
2022/03/04 10:20:13;;;;;;;8.70;6.70;;;;;;;4.78;72.59;100564.66;129989;1271;109085;-74
2022/03/04 10:23:22;;;;;;;10.30;7.70;;;;;;;4.68;72.64;100564.83;130084;1270;108714;-73
2022/03/04 10:26:30;;;;;;;11.00;8.00;;;;;;;4.57;72.84;100565.46;130171;1270;108814;-74
2022/03/04 10:29:38;;;;;;;10.80;7.90;;;;;;;4.53;73.02;100566.20;130162;1271;108664;-73
2022/03/04 10:32:44;;;;;;;12.70;8.50;;;;;;;4.44;72.68;100572.36;130105;1269;108907;-73
2022/03/04 10:36:07;;;;;;;10.60;7.10;;;;;;;4.30;72.40;100571.86;129992;1269;106877;-74
2022/03/04 10:39:12;;;;;;;72.20;61.50;;;;;;;4.26;73.16;100564.74;130019;1271;109055;-73
2022/03/04 10:42:17;;;;;;;17.00;14.00;;;;;;;4.29;72.62;100571.42;130120;1270;108960;-73
2022/03/04 10:45:26;;;;;;;12.20;8.60;;;;;;;4.26;72.57;100566.17;130111;1271;108616;-74
2022/03/04 10:48:32;;;;;;;12.90;9.60;;;;;;;4.19;72.78;100566.79;130012;1271;108787;-73
2022/03/04 10:51:40;;;;;;;11.60;8.20;;;;;;;4.23;72.93;100563.39;130090;1270;108851;-73
2022/03/04 10:54:52;;;;;;;13.20;9.40;;;;;;;4.17;72.77;100563.05;130049;1270;109167;-72
2022/03/04 10:57:57;;;;;;;11.20;7.90;;;;;;;4.17;72.94;100566.27;130079;1271;107621;-74
2022/03/04 11:01:05;;;;;;;15.70;8.60;;;;;;;4.20;73.10;100566.05;130179;1271;108753;-74
2022/03/04 11:04:11;;;;;;;14.70;10.20;;;;;;;4.31;73.18;100567.23;130157;1271;108855;-73
2022/03/04 11:07:16;;;;;;;11.40;8.10;;;;;;;4.39;72.93;100563.19;130084;1270;108672;-73
2022/03/04 11:10:23;;;;;;;10.90;7.00;;;;;;;4.40;72.74;100561.69;130053;1271;108680;-73
2022/03/04 11:13:30;;;;;;;10.60;7.10;;;;;;;4.57;72.59;100567.05;130057;1270;108406;-73
2022/03/04 11:16:36;;;;;;;11.50;7.60;;;;;;;4.79;72.27;100566.53;130100;1271;108916;-73
2022/03/04 11:19:42;;;;;;;11.30;7.00;;;;;;;5.00;71.82;100569.69;130043;1271;108744;-74
2022/03/04 11:22:51;;;;;;;10.40;6.90;;;;;;;5.12;71.79;100568.95;130061;1270;109018;-74
2022/03/04 11:25:59;;;;;;;10.10;8.40;;;;;;;5.10;71.01;100566.27;130107;1271;108938;-73
2022/03/04 11:29:05;;;;;;;11.60;8.60;;;;;;;5.06;70.68;100567.05;130199;1270;108957;-73
2022/03/04 11:32:11;;;;;;;11.60;7.50;;;;;;;4.89;70.98;100569.50;130157;1270;107650;-74
2022/03/04 11:35:48;;;;;;;12.90;8.00;;;;;;;4.78;71.20;100573.31;130099;1270;108612;-73
2022/03/04 11:39:02;;;;;;;15.60;9.50;;;;;;;4.58;71.81;100577.13;130129;1270;110193;-73
2022/03/04 11:42:11;;;;;;;11.30;7.20;;;;;;;4.40;71.88;100578.58;130119;1270;108901;-73
2022/03/04 11:45:32;;;;;;;10.80;7.10;;;;;;;4.29;72.34;100577.39;130100;1270;108743;-73
2022/03/04 11:48:38;;;;;;;10.40;7.10;;;;;;;4.26;72.12;100577.27;130096;1270;108651;-75
2022/03/04 11:52:19;;;;;;;12.00;8.80;;;;;;;4.18;72.47;100575.84;130129;1271;108848;-73
2022/03/04 11:55:27;;;;;;;12.80;9.20;;;;;;;4.08;72.48;100574.58;130148;1270;108647;-74
2022/03/04 11:59:10;;;;;;;15.70;10.30;;;;;;;3.96;72.63;100572.58;130103;1270;108799;-73
2022/03/04 12:02:20;;;;;;;20.40;14.10;;;;;;;3.90;72.55;100573.82;130102;1270;108676;-73
2022/03/04 12:05:32;;;;;;;17.30;11.60;;;;;;;3.99;72.49;100573.80;130102;1269;108706;-73
2022/03/04 12:08:43;;;;;;;14.50;9.80;;;;;;;4.00;72.30;100573.20;130147;1269;108806;-72
2022/03/04 12:12:17;;;;;;;21.00;15.00;;;;;;;3.96;72.41;100574.03;130038;1270;108938;-74
2022/03/04 12:15:36;;;;;;;15.30;9.10;;;;;;;4.07;72.43;100573.95;130095;1269;109760;-73
2022/03/04 12:18:45;;;;;;;11.70;8.20;;;;;;;4.21;72.32;100566.67;130125;1270;108647;-74
2022/03/04 12:21:56;;;;;;;13.50;8.90;;;;;;;4.30;72.29;100568.52;130097;1270;108849;-73
2022/03/04 12:25:04;;;;;;;13.10;9.60;;;;;;;4.38;72.09;100568.67;130057;1270;108965;-74
2022/03/04 12:28:18;;;;;;;12.30;8.50;;;;;;;4.39;71.70;100566.48;130153;1270;108535;-73
2022/03/04 12:31:25;;;;;;;12.30;8.60;;;;;;;4.33;71.60;100571.85;130079;1270;108815;-74
2022/03/04 12:34:32;;;;;;;11.40;8.40;;;;;;;4.27;71.79;100569.80;130077;1270;108930;-71
2022/03/04 12:37:40;;;;;;;15.40;10.00;;;;;;;4.21;71.72;100572.30;130140;1269;108904;-73
2022/03/04 12:40:48;;;;;;;12.40;8.20;;;;;;;4.14;71.77;100581.77;130111;1270;108863;-74
2022/03/04 12:43:56;;;;;;;13.50;8.20;;;;;;;4.10;72.13;100580.79;130216;1270;108596;-72
2022/03/04 12:47:02;;;;;;;15.30;9.60;;;;;;;4.15;72.23;100582.95;130222;1270;108832;-72
2022/03/04 12:50:10;;;;;;;12.60;7.40;;;;;;;4.14;71.88;100579.83;130150;1270;109072;-73
2022/03/04 12:53:23;;;;;;;12.10;7.20;;;;;;;4.10;71.85;100577.80;130092;1270;108891;-73
2022/03/04 12:56:29;;;;;;;9.40;6.60;;;;;;;4.11;71.57;100580.56;130101;1269;108634;-72
2022/03/04 12:59:46;;;;;;;11.20;7.20;;;;;;;4.11;71.63;100578.09;130118;1270;108826;-73
2022/03/04 13:02:51;;;;;;;11.90;7.50;;;;;;;4.12;71.83;100577.84;130117;1270;108887;-73
2022/03/04 13:05:57;;;;;;;14.00;8.30;;;;;;;4.19;72.00;100579.30;130104;1270;108862;-72
2022/03/04 13:09:04;;;;;;;11.60;7.70;;;;;;;4.28;71.84;100578.91;130102;1270;108678;-73
2022/03/04 13:12:10;;;;;;;13.00;8.30;;;;;;;4.30;71.80;100580.83;130134;1270;109035;-73
2022/03/04 13:15:16;;;;;;;13.50;8.60;;;;;;;4.31;71.46;100576.70;130132;1270;108715;-73
2022/03/04 13:18:22;;;;;;;13.20;8.40;;;;;;;4.30;71.74;100579.45;130063;1270;108843;-74
2022/03/04 13:21:57;;;;;;;12.90;8.50;;;;;;;4.23;71.39;100579.21;130083;1270;108804;-73
2022/03/04 13:25:03;;;;;;;13.60;8.50;;;;;;;4.17;71.66;100577.15;130078;1270;108907;-73
2022/03/04 13:28:08;;;;;;;15.40;10.00;;;;;;;4.17;71.78;100578.39;130236;1270;109793;-72
2022/03/04 13:31:24;;;;;;;18.00;12.20;;;;;;;4.15;71.80;100575.69;130108;1270;108885;-72
2022/03/04 13:34:31;;;;;;;17.90;12.00;;;;;;;4.16;71.81;100579.30;130120;1270;108863;-71
2022/03/04 13:37:41;;;;;;;15.80;8.80;;;;;;;4.20;71.92;100577.17;130161;1270;108881;-73
2022/03/04 13:40:47;;;;;;;13.00;8.00;;;;;;;4.29;71.97;100580.55;130126;1270;108898;-72
2022/03/04 13:44:07;;;;;;;16.00;10.50;;;;;;;4.31;71.62;100580.05;130111;1270;108730;-74
2022/03/04 13:47:12;;;;;;;19.40;13.10;;;;;;;4.30;71.81;100583.52;130144;1270;108935;-73
2022/03/04 13:50:30;;;;;;;32.80;21.10;;;;;;;4.27;71.77;100587.38;130047;1270;108906;-74
2022/03/04 13:53:36;;;;;;;25.50;14.10;;;;;;;4.19;71.99;100587.61;130119;1270;108768;-71
2022/03/04 13:56:43;;;;;;;20.90;13.50;;;;;;;4.15;72.02;100586.95;130104;1270;106385;-72
2022/03/04 13:59:52;;;;;;;42.00;26.50;;;;;;;4.15;72.16;100585.94;130138;1269;108643;-73
2022/03/04 14:03:05;;;;;;;20.10;11.20;;;;;;;4.15;72.19;100584.19;130170;1270;108753;-73